Time;durP1;ratioP1;P1;durP2;ratioP2;P2;SDS_P1;SDS_P2;PMS_P1;PMS_P2;Temp;Humidity;BMP_temperature;BMP_pressure;BME280_temperature;BME280_humidity;BME280_pressure;Samples;Min_cycle;Max_cycle;Signal;HPM_P1;HPM_P2
2022/04/13 00:01:10;;;;;;;5.73;4.20;;;;;;;;;;5072243;28;20330;-54
2022/04/13 00:03:36;;;;;;;4.80;3.83;;;;;;;;;;5074185;28;20223;-52
2022/04/13 00:06:02;;;;;;;6.40;3.63;;;;;;;;;;5073995;28;20205;-52
2022/04/13 00:08:30;;;;;;;4.83;4.00;;;;;;;;;;5074110;28;20199;-53
2022/04/13 00:10:56;;;;;;;4.67;3.80;;;;;;;;;;5073956;28;20199;-56
2022/04/13 00:13:22;;;;;;;7.40;4.43;;;;;;;;;;5073908;28;20195;-54
2022/04/13 00:15:48;;;;;;;6.10;4.17;;;;;;;;;;5073958;28;20689;-55
2022/04/13 00:18:15;;;;;;;4.83;4.17;;;;;;;;;;5074018;28;20281;-54
2022/04/13 00:20:41;;;;;;;6.83;4.30;;;;;;;;;;5074112;28;20200;-54
2022/04/13 00:23:07;;;;;;;5.37;4.63;;;;;;;;;;5073856;28;20199;-54
2022/04/13 00:25:38;;;;;;;6.03;4.67;;;;;;;;;;5073566;28;20215;-54
2022/04/13 00:28:04;;;;;;;5.23;4.73;;;;;;;;;;5073827;28;20206;-53
2022/04/13 00:30:30;;;;;;;6.00;4.57;;;;;;;;;;5073825;28;20690;-53
2022/04/13 00:32:56;;;;;;;5.57;4.17;;;;;;;;;;5073766;28;20290;-53
2022/04/13 00:35:22;;;;;;;7.67;3.97;;;;;;;;;;5073674;28;20203;-53
2022/04/13 00:37:48;;;;;;;4.77;3.77;;;;;;;;;;5073512;28;20220;-54
2022/04/13 00:40:14;;;;;;;5.30;3.70;;;;;;;;;;5073499;28;20219;-54
2022/04/13 00:42:42;;;;;;;4.67;3.63;;;;;;;;;;5073220;28;20697;-54
2022/04/13 00:45:08;;;;;;;5.93;3.80;;;;;;;;;;5073509;28;20227;-54
2022/04/13 00:47:38;;;;;;;5.10;3.70;;;;;;;;;;5073317;28;20200;-54
2022/04/13 00:50:04;;;;;;;5.97;3.43;;;;;;;;;;5073402;28;20567;-54
2022/04/13 00:52:31;;;;;;;4.83;3.60;;;;;;;;;;5073338;28;20199;-54
2022/04/13 00:54:57;;;;;;;5.20;3.93;;;;;;;;;;5073332;28;20682;-54
2022/04/13 00:57:25;;;;;;;5.07;3.63;;;;;;;;;;5072959;28;20195;-54
2022/04/13 00:59:53;;;;;;;5.30;3.30;;;;;;;;;;5073302;28;20203;-54
2022/04/13 01:02:19;;;;;;;6.80;3.57;;;;;;;;;;5072623;28;20267;-54
2022/04/13 01:04:47;;;;;;;4.50;3.47;;;;;;;;;;5073155;28;20218;-53
2022/04/13 01:07:13;;;;;;;4.97;3.17;;;;;;;;;;5073031;28;20659;-53
2022/04/13 01:09:40;;;;;;;3.67;3.23;;;;;;;;;;5072996;28;20214;-54
2022/04/13 01:12:07;;;;;;;5.07;3.50;;;;;;;;;;5072672;28;20608;-54
2022/04/13 01:14:34;;;;;;;3.97;3.57;;;;;;;;;;5072820;28;20274;-54
2022/04/13 01:17:01;;;;;;;4.30;3.40;;;;;;;;;;5072983;28;20223;-54
2022/04/13 01:19:28;;;;;;;7.07;3.70;;;;;;;;;;5072821;28;20766;-53
2022/04/13 01:21:58;;;;;;;4.30;3.90;;;;;;;;;;5072787;28;20228;-54
2022/04/13 01:24:28;;;;;;;5.30;3.20;;;;;;;;;;5072602;28;20268;-54
2022/04/13 01:26:54;;;;;;;4.47;3.50;;;;;;;;;;5072529;28;20289;-54
2022/04/13 01:29:20;;;;;;;6.47;3.53;;;;;;;;;;5072457;28;20286;-54
2022/04/13 01:31:46;;;;;;;4.97;3.60;;;;;;;;;;5072657;28;20204;-53
2022/04/13 01:34:15;;;;;;;4.37;3.47;;;;;;;;;;5072538;28;20195;-53
2022/04/13 01:36:41;;;;;;;5.77;3.60;;;;;;;;;;5072527;28;20191;-55
2022/04/13 01:39:08;;;;;;;4.37;3.93;;;;;;;;;;5072368;28;20625;-55
2022/04/13 01:41:35;;;;;;;5.00;3.70;;;;;;;;;;5072170;28;20199;-55
2022/04/13 01:44:01;;;;;;;5.47;3.80;;;;;;;;;;5072403;28;20207;-54
2022/04/13 01:46:27;;;;;;;8.43;4.07;;;;;;;;;;5072357;28;20227;-54
2022/04/13 01:48:53;;;;;;;5.80;3.87;;;;;;;;;;5072281;28;20218;-54
2022/04/13 01:51:20;;;;;;;4.80;4.10;;;;;;;;;;5071774;28;20275;-54
2022/04/13 01:53:46;;;;;;;4.27;3.47;;;;;;;;;;5072082;28;20665;-54
2022/04/13 01:56:12;;;;;;;5.63;4.03;;;;;;;;;;5072176;28;20234;-54
2022/04/13 01:58:40;;;;;;;3.97;3.30;;;;;;;;;;5072013;28;20259;-54
2022/04/13 02:01:06;;;;;;;7.03;3.43;;;;;;;;;;5071858;28;20306;-53
2022/04/13 02:03:32;;;;;;;6.20;3.93;;;;;;;;;;5072071;28;20203;-54
2022/04/13 02:05:58;;;;;;;4.53;3.90;;;;;;;;;;5072038;28;20290;-54
2022/04/13 02:08:26;;;;;;;5.87;3.73;;;;;;;;;;5071650;28;20222;-54
2022/04/13 02:10:52;;;;;;;5.07;3.40;;;;;;;;;;5072008;28;20209;-54
2022/04/13 02:13:20;;;;;;;6.13;3.57;;;;;;;;;;5071136;28;20204;-54
2022/04/13 02:15:48;;;;;;;3.93;3.30;;;;;;;;;;5072061;28;20195;-54
2022/04/13 02:18:14;;;;;;;6.27;3.40;;;;;;;;;;5071854;28;20261;-54
2022/04/13 02:20:40;;;;;;;4.83;3.70;;;;;;;;;;5071653;28;20200;-55
2022/04/13 02:23:06;;;;;;;3.77;3.13;;;;;;;;;;5071934;28;20207;-56
2022/04/13 02:25:35;;;;;;;4.90;3.90;;;;;;;;;;5071706;28;20251;-54
2022/04/13 02:28:01;;;;;;;5.83;3.40;;;;;;;;;;5071742;28;20196;-54
2022/04/13 02:30:27;;;;;;;4.17;3.50;;;;;;;;;;5071988;28;20218;-54
2022/04/13 02:32:55;;;;;;;4.47;3.13;;;;;;;;;;5071743;28;20310;-54
2022/04/13 02:35:20;;;;;;;4.23;3.20;;;;;;;;;;5071553;28;20717;-54
2022/04/13 02:37:46;;;;;;;4.60;3.60;;;;;;;;;;5071714;28;20203;-55
2022/04/13 02:40:13;;;;;;;3.77;3.47;;;;;;;;;;5071724;28;20207;-55
2022/04/13 02:42:39;;;;;;;4.57;3.13;;;;;;;;;;5071668;28;20202;-55
2022/04/13 02:45:06;;;;;;;4.70;3.50;;;;;;;;;;5071661;28;20199;-55
2022/04/13 02:47:32;;;;;;;4.43;3.50;;;;;;;;;;5071699;28;20285;-55
2022/04/13 02:50:02;;;;;;;4.97;3.53;;;;;;;;;;5071735;28;20222;-55
2022/04/13 02:52:30;;;;;;;4.87;3.63;;;;;;;;;;5071534;28;20203;-54
2022/04/13 02:54:56;;;;;;;7.07;3.70;;;;;;;;;;5071450;28;20199;-55
2022/04/13 02:57:22;;;;;;;5.63;3.83;;;;;;;;;;5071334;28;20290;-56
2022/04/13 02:59:49;;;;;;;5.50;3.67;;;;;;;;;;5071219;28;20223;-54
2022/04/13 03:02:15;;;;;;;4.37;3.60;;;;;;;;;;5071683;28;20607;-54
2022/04/13 03:04:42;;;;;;;6.60;4.30;;;;;;;;;;5071410;28;20200;-54
2022/04/13 03:07:10;;;;;;;5.53;4.10;;;;;;;;;;5071393;28;20211;-54
2022/04/13 03:09:36;;;;;;;4.17;3.73;;;;;;;;;;5071277;28;20204;-54
2022/04/13 03:12:02;;;;;;;6.67;3.50;;;;;;;;;;5071344;28;20241;-54
2022/04/13 03:14:28;;;;;;;5.07;3.87;;;;;;;;;;5071368;28;20261;-54
2022/04/13 03:16:54;;;;;;;5.30;3.97;;;;;;;;;;5071575;28;20203;-54
2022/04/13 03:19:20;;;;;;;4.00;3.60;;;;;;;;;;5071296;28;20251;-54
2022/04/13 03:21:51;;;;;;;5.93;3.90;;;;;;;;;;5071390;28;20217;-54
2022/04/13 03:24:18;;;;;;;4.77;3.77;;;;;;;;;;5072781;28;20254;-54
2022/04/13 03:26:44;;;;;;;4.67;3.93;;;;;;;;;;5075064;28;20199;-54
2022/04/13 03:29:10;;;;;;;5.23;3.67;;;;;;;;;;5075082;28;20676;-54
2022/04/13 03:31:36;;;;;;;4.90;4.10;;;;;;;;;;5074779;28;20208;-55
2022/04/13 03:34:02;;;;;;;5.07;3.70;;;;;;;;;;5074989;28;20226;-54
2022/04/13 03:36:28;;;;;;;5.30;4.10;;;;;;;;;;5074775;28;20195;-54
2022/04/13 03:38:55;;;;;;;4.60;3.83;;;;;;;;;;5074554;28;20642;-54
2022/04/13 03:41:22;;;;;;;7.57;3.90;;;;;;;;;;5074601;28;20562;-55
2022/04/13 03:43:48;;;;;;;4.97;3.33;;;;;;;;;;5074671;28;20675;-54
2022/04/13 03:46:14;;;;;;;4.97;3.87;;;;;;;;;;5074716;28;20195;-55
2022/04/13 03:48:40;;;;;;;4.97;3.80;;;;;;;;;;5074501;28;20199;-54
2022/04/13 03:51:06;;;;;;;4.23;3.73;;;;;;;;;;5074706;28;20207;-54
2022/04/13 03:53:32;;;;;;;6.93;4.20;;;;;;;;;;5074493;28;20203;-54
2022/04/13 03:55:58;;;;;;;5.53;3.60;;;;;;;;;;5074383;28;20206;-54
2022/04/13 03:58:27;;;;;;;4.73;3.60;;;;;;;;;;5074166;28;20302;-54
2022/04/13 04:00:53;;;;;;;6.80;4.17;;;;;;;;;;5074163;28;20239;-54
2022/04/13 04:03:19;;;;;;;6.43;4.37;;;;;;;;;;5074131;28;20711;-54
2022/04/13 04:05:45;;;;;;;5.17;4.33;;;;;;;;;;5074092;28;20202;-54
2022/04/13 04:08:11;;;;;;;5.67;4.30;;;;;;;;;;5074075;28;20663;-54
2022/04/13 04:10:37;;;;;;;7.70;3.80;;;;;;;;;;5074106;28;20207;-54
2022/04/13 04:13:03;;;;;;;4.43;4.03;;;;;;;;;;5074040;28;20206;-54
2022/04/13 04:15:31;;;;;;;5.57;3.77;;;;;;;;;;5073967;28;20720;-54
2022/04/13 04:17:57;;;;;;;5.43;3.97;;;;;;;;;;5074052;28;20230;-54
2022/04/13 04:20:23;;;;;;;5.07;3.90;;;;;;;;;;5073836;28;20228;-55
2022/04/13 04:22:49;;;;;;;7.97;3.97;;;;;;;;;;5073883;28;20188;-54
2022/04/13 04:25:15;;;;;;;4.73;3.87;;;;;;;;;;5073648;28;20216;-54
2022/04/13 04:27:41;;;;;;;5.60;4.40;;;;;;;;;;5073916;28;20196;-54
2022/04/13 04:30:08;;;;;;;7.73;4.03;;;;;;;;;;5073718;28;20196;-54
2022/04/13 04:32:35;;;;;;;4.73;4.17;;;;;;;;;;5072547;28;20199;-55
2022/04/13 04:35:01;;;;;;;10.00;3.67;;;;;;;;;;5073428;28;20301;-54
2022/04/13 04:37:27;;;;;;;5.20;4.00;;;;;;;;;;5073144;28;20199;-55
2022/04/13 04:39:53;;;;;;;5.10;4.03;;;;;;;;;;5073465;28;20216;-54
2022/04/13 04:42:19;;;;;;;4.73;4.20;;;;;;;;;;5073433;28;20261;-54
2022/04/13 04:44:46;;;;;;;5.37;4.40;;;;;;;;;;5073617;28;20222;-54
2022/04/13 04:47:12;;;;;;;7.23;3.90;;;;;;;;;;5073480;28;20196;-54
2022/04/13 04:49:40;;;;;;;10.30;4.37;;;;;;;;;;5073115;28;20725;-54
2022/04/13 04:52:06;;;;;;;5.33;4.50;;;;;;;;;;5073101;28;20208;-54
2022/04/13 04:54:32;;;;;;;7.30;4.40;;;;;;;;;;5073203;28;20203;-54
2022/04/13 04:56:58;;;;;;;17.60;4.80;;;;;;;;;;5073433;28;20202;-54
2022/04/13 04:59:24;;;;;;;9.77;5.10;;;;;;;;;;5073075;28;20226;-54
2022/04/13 05:01:50;;;;;;;9.03;4.77;;;;;;;;;;5073102;28;20277;-55
2022/04/13 05:04:16;;;;;;;10.33;5.23;;;;;;;;;;5073133;28;20225;-54
2022/04/13 05:06:44;;;;;;;6.17;4.63;;;;;;;;;;5072970;28;20685;-54
2022/04/13 05:09:09;;;;;;;7.63;4.63;;;;;;;;;;5072997;28;20684;-54
2022/04/13 05:11:36;;;;;;;7.80;4.43;;;;;;;;;;5072682;28;20204;-55
2022/04/13 05:14:01;;;;;;;5.47;4.53;;;;;;;;;;5073005;28;20195;-54
2022/04/13 05:16:28;;;;;;;9.27;4.80;;;;;;;;;;5072767;28;20231;-55
2022/04/13 05:18:53;;;;;;;7.63;4.90;;;;;;;;;;5072847;28;20254;-54
2022/04/13 05:21:19;;;;;;;8.27;4.67;;;;;;;;;;5072587;28;20615;-55
2022/04/13 05:23:47;;;;;;;8.23;4.63;;;;;;;;;;5072694;28;20227;-56
2022/04/13 05:26:18;;;;;;;12.20;4.87;;;;;;;;;;5072575;28;20218;-54
2022/04/13 05:28:44;;;;;;;8.23;4.57;;;;;;;;;;5072743;28;20206;-55
2022/04/13 05:31:10;;;;;;;5.73;4.13;;;;;;;;;;5072548;28;20200;-55
2022/04/13 05:33:36;;;;;;;5.43;4.17;;;;;;;;;;5072374;28;20207;-55
2022/04/13 05:36:02;;;;;;;5.53;4.60;;;;;;;;;;5072240;28;20195;-55
2022/04/13 05:38:28;;;;;;;7.50;4.47;;;;;;;;;;5072396;28;20225;-54
2022/04/13 05:40:56;;;;;;;7.97;4.70;;;;;;;;;;5072409;28;20219;-55
2022/04/13 05:43:22;;;;;;;5.67;4.37;;;;;;;;;;5072304;28;20196;-55
2022/04/13 05:45:48;;;;;;;9.80;4.80;;;;;;;;;;5072210;28;20210;-55
2022/04/13 05:48:15;;;;;;;7.70;5.10;;;;;;;;;;5072509;28;20195;-55
2022/04/13 05:50:41;;;;;;;6.20;4.90;;;;;;;;;;5072078;28;20226;-55
2022/04/13 05:53:07;;;;;;;6.43;4.50;;;;;;;;;;5072119;28;20677;-55
2022/04/13 05:55:33;;;;;;;9.53;5.13;;;;;;;;;;5071788;28;20245;-56
2022/04/13 05:58:00;;;;;;;7.57;5.20;;;;;;;;;;5072233;28;20684;-55
2022/04/13 06:00:26;;;;;;;7.00;4.93;;;;;;;;;;5071824;28;20263;-55
2022/04/13 06:02:52;;;;;;;5.03;4.20;;;;;;;;;;5071900;28;20654;-55
2022/04/13 06:05:20;;;;;;;5.97;4.30;;;;;;;;;;5071829;28;20203;-55
2022/04/13 06:07:47;;;;;;;5.17;4.30;;;;;;;;;;5072271;28;20200;-55
2022/04/13 06:10:15;;;;;;;8.97;4.73;;;;;;;;;;5071900;28;20196;-54
2022/04/13 06:12:41;;;;;;;7.00;4.60;;;;;;;;;;5071816;28;20196;-55
2022/04/13 06:15:09;;;;;;;5.83;4.27;;;;;;;;;;5071675;28;20416;-55
2022/04/13 06:17:36;;;;;;;6.53;4.00;;;;;;;;;;5071877;28;20252;-55
2022/04/13 06:20:03;;;;;;;4.10;3.70;;;;;;;;;;5071873;28;20637;-55
2022/04/13 06:22:31;;;;;;;5.03;4.27;;;;;;;;;;5071861;28;20586;-54
2022/04/13 06:24:57;;;;;;;5.47;4.10;;;;;;;;;;5071698;28;20218;-55
2022/04/13 06:27:23;;;;;;;5.27;4.17;;;;;;;;;;5071802;28;20211;-55
2022/04/13 06:29:49;;;;;;;4.67;3.80;;;;;;;;;;5071689;28;20202;-54
2022/04/13 06:32:16;;;;;;;4.90;4.07;;;;;;;;;;5071731;28;20196;-54
2022/04/13 06:34:42;;;;;;;5.53;4.20;;;;;;;;;;5071684;28;20207;-55
2022/04/13 06:37:08;;;;;;;5.83;4.60;;;;;;;;;;5071438;28;20223;-55
2022/04/13 06:39:34;;;;;;;6.53;4.17;;;;;;;;;;5071512;28;20227;-55
2022/04/13 06:42:00;;;;;;;4.00;3.40;;;;;;;;;;5071875;28;20195;-55
2022/04/13 06:44:27;;;;;;;4.47;3.70;;;;;;;;;;5071541;28;20192;-55
2022/04/13 06:46:53;;;;;;;4.80;3.70;;;;;;;;;;5071429;28;20195;-55
2022/04/13 06:49:21;;;;;;;5.87;3.60;;;;;;;;;;5071413;28;20214;-54
2022/04/13 06:51:47;;;;;;;5.23;3.83;;;;;;;;;;5071573;28;20223;-54
2022/04/13 06:54:13;;;;;;;4.37;3.30;;;;;;;;;;5071665;28;20219;-53
2022/04/13 06:56:39;;;;;;;4.13;3.50;;;;;;;;;;5071331;28;20200;-55
2022/04/13 06:59:05;;;;;;;3.90;3.20;;;;;;;;;;5072690;28;20247;-55
2022/04/13 07:01:31;;;;;;;5.23;3.47;;;;;;;;;;5075043;28;20713;-54
2022/04/13 07:03:57;;;;;;;4.80;3.33;;;;;;;;;;5075347;28;20274;-55
2022/04/13 07:06:24;;;;;;;8.83;3.90;;;;;;;;;;5075122;28;20215;-55
2022/04/13 07:08:50;;;;;;;4.47;3.17;;;;;;;;;;5075365;28;20207;-56
2022/04/13 07:11:17;;;;;;;5.10;2.63;;;;;;;;;;5075219;28;20200;-57
2022/04/13 07:13:43;;;;;;;4.07;2.77;;;;;;;;;;5075066;28;20202;-55
2022/04/13 07:16:09;;;;;;;3.37;2.53;;;;;;;;;;5075185;28;20274;-55
2022/04/13 07:18:36;;;;;;;2.60;2.33;;;;;;;;;;5074638;28;20223;-57
2022/04/13 07:21:02;;;;;;;4.50;2.43;;;;;;;;;;5075118;28;20204;-57
2022/04/13 07:23:30;;;;;;;3.10;2.70;;;;;;;;;;5075093;28;20195;-49
2022/04/13 07:25:56;;;;;;;3.50;2.37;;;;;;;;;;5075327;28;20203;-50
2022/04/13 07:28:22;;;;;;;4.40;2.60;;;;;;;;;;5074644;28;20222;-58
2022/04/13 07:30:48;;;;;;;3.20;2.40;;;;;;;;;;5074951;28;20686;-59
2022/04/13 07:33:14;;;;;;;3.93;2.40;;;;;;;;;;5074892;28;20658;-57
2022/04/13 07:35:40;;;;;;;3.83;2.60;;;;;;;;;;5074704;28;20200;-58
2022/04/13 07:38:06;;;;;;;4.77;2.53;;;;;;;;;;5074824;28;20204;-58
2022/04/13 07:40:33;;;;;;;3.97;2.40;;;;;;;;;;5074763;28;20191;-58
2022/04/13 07:42:59;;;;;;;3.10;2.30;;;;;;;;;;5074926;28;20195;-58
2022/04/13 07:45:25;;;;;;;5.83;2.40;;;;;;;;;;5074581;28;20223;-58
2022/04/13 07:47:51;;;;;;;4.73;2.00;;;;;;;;;;5074600;28;20243;-58
2022/04/13 07:50:17;;;;;;;3.93;2.30;;;;;;;;;;5074706;28;20680;-58
2022/04/13 07:52:43;;;;;;;2.70;2.30;;;;;;;;;;5074717;28;20254;-58
2022/04/13 07:55:10;;;;;;;6.00;2.10;;;;;;;;;;5074572;28;20618;-58
2022/04/13 07:57:37;;;;;;;4.57;2.40;;;;;;;;;;5074467;28;20222;-57
2022/04/13 08:00:04;;;;;;;5.80;2.17;;;;;;;;;;5074170;28;20235;-58
2022/04/13 08:02:33;;;;;;;3.93;2.40;;;;;;;;;;5074133;28;20204;-57
2022/04/13 08:04:59;;;;;;;3.13;2.60;;;;;;;;;;5065189;28;20215;-58
2022/04/13 08:07:26;;;;;;;4.03;2.50;;;;;;;;;;5074417;28;20291;-59
2022/04/13 08:09:52;;;;;;;4.37;2.60;;;;;;;;;;5073600;28;20215;-59
2022/04/13 08:12:18;;;;;;;5.40;2.67;;;;;;;;;;5073609;28;20670;-59
2022/04/13 08:14:49;;;;;;;4.43;3.00;;;;;;;;;;5073879;28;20294;-58
2022/04/13 08:17:15;;;;;;;6.87;2.87;;;;;;;;;;5073952;28;20566;-57
2022/04/13 08:19:43;;;;;;;5.00;2.80;;;;;;;;;;5073763;28;20257;-58
2022/04/13 08:22:09;;;;;;;3.43;2.73;;;;;;;;;;5074169;28;20279;-58
2022/04/13 08:24:35;;;;;;;4.30;2.60;;;;;;;;;;5073672;28;20212;-58
2022/04/13 08:27:01;;;;;;;6.80;2.80;;;;;;;;;;5073501;28;20246;-59
2022/04/13 08:29:27;;;;;;;5.10;3.07;;;;;;;;;;5073713;28;20676;-58
2022/04/13 08:31:54;;;;;;;2.90;2.60;;;;;;;;;;5073796;28;20197;-58
2022/04/13 08:34:20;;;;;;;3.93;3.00;;;;;;;;;;5073726;28;20646;-58
2022/04/13 08:36:46;;;;;;;3.57;2.70;;;;;;;;;;5073645;28;20292;-58
2022/04/13 08:39:15;;;;;;;7.10;3.37;;;;;;;;;;5073468;28;20587;-58
2022/04/13 08:41:47;;;;;;;6.67;2.87;;;;;;;;;;5073504;28;20209;-58
2022/04/13 08:44:16;;;;;;;4.13;2.77;;;;;;;;;;5072076;28;20198;-59
2022/04/13 08:46:44;;;;;;;3.73;2.87;;;;;;;;;;5071687;28;20538;-58
2022/04/13 08:49:13;;;;;;;5.00;2.80;;;;;;;;;;5073717;28;20202;-56
2022/04/13 08:51:40;;;;;;;4.07;2.80;;;;;;;;;;5072918;28;20734;-56
2022/04/13 08:54:11;;;;;;;3.83;2.63;;;;;;;;;;5071674;28;20241;-56
2022/04/13 08:56:37;;;;;;;4.07;2.47;;;;;;;;;;5073299;28;20194;-56
2022/04/13 08:59:05;;;;;;;3.60;2.50;;;;;;;;;;5073307;28;20230;-56
2022/04/13 09:01:40;;;;;;;5.30;2.97;;;;;;;;;;5073133;28;20239;-56
2022/04/13 09:04:07;;;;;;;6.90;2.77;;;;;;;;;;5072984;28;20282;-57
2022/04/13 09:06:36;;;;;;;5.33;2.80;;;;;;;;;;5072987;28;20745;-56
2022/04/13 09:09:02;;;;;;;7.80;3.30;;;;;;;;;;5073103;28;20206;-57
2022/04/13 09:11:29;;;;;;;5.60;3.17;;;;;;;;;;5073066;28;20665;-56
2022/04/13 09:13:55;;;;;;;4.13;3.00;;;;;;;;;;5072872;28;20195;-56
2022/04/13 09:16:21;;;;;;;4.23;2.80;;;;;;;;;;5072792;28;20256;-56
2022/04/13 09:18:47;;;;;;;7.30;3.10;;;;;;;;;;5070914;28;20222;-57
2022/04/13 09:21:14;;;;;;;8.93;3.70;;;;;;;;;;5072798;28;20192;-56
2022/04/13 09:23:41;;;;;;;7.47;3.60;;;;;;;;;;5072487;28;20306;-56
2022/04/13 09:26:08;;;;;;;5.77;3.07;;;;;;;;;;5072697;28;20645;-56
2022/04/13 09:28:36;;;;;;;5.30;3.37;;;;;;;;;;5072422;28;20574;-58
2022/04/13 09:31:02;;;;;;;6.77;3.20;;;;;;;;;;5072731;28;20196;-56
2022/04/13 09:33:28;;;;;;;6.10;3.10;;;;;;;;;;5072478;28;20192;-56
2022/04/13 09:35:54;;;;;;;9.33;3.70;;;;;;;;;;5072561;28;20685;-56
2022/04/13 09:38:21;;;;;;;6.40;3.57;;;;;;;;;;5072488;28;20909;-57
2022/04/13 09:40:50;;;;;;;5.37;3.50;;;;;;;;;;5072170;28;20217;-57
2022/04/13 09:43:17;;;;;;;8.07;3.60;;;;;;;;;;5072582;28;20203;-56
2022/04/13 09:45:44;;;;;;;7.57;3.40;;;;;;;;;;5072418;28;20220;-57
2022/04/13 09:48:11;;;;;;;10.47;3.40;;;;;;;;;;5072510;28;20222;-58
2022/04/13 09:50:39;;;;;;;10.53;3.30;;;;;;;;;;5072275;28;20626;-56
2022/04/13 09:53:06;;;;;;;6.33;3.57;;;;;;;;;;5072214;28;20213;-57
2022/04/13 09:55:37;;;;;;;6.07;3.20;;;;;;;;;;5069250;28;20201;-57
2022/04/13 09:58:05;;;;;;;6.57;3.80;;;;;;;;;;5072051;28;20196;-57
2022/04/13 10:00:31;;;;;;;6.33;3.33;;;;;;;;;;5071643;28;20247;-56
2022/04/13 10:03:06;;;;;;;8.07;3.57;;;;;;;;;;5072044;28;20279;-57
2022/04/13 10:05:32;;;;;;;9.23;3.90;;;;;;;;;;5071720;28;20302;-57
2022/04/13 10:08:01;;;;;;;5.83;3.33;;;;;;;;;;5072049;28;20227;-57
2022/04/13 10:10:28;;;;;;;5.60;3.30;;;;;;;;;;5071688;28;20297;-57
2022/04/13 10:12:55;;;;;;;7.23;3.80;;;;;;;;;;5071682;28;20282;-57
2022/04/13 10:15:22;;;;;;;7.07;3.40;;;;;;;;;;5071612;28;20633;-57
2022/04/13 10:17:48;;;;;;;7.47;3.80;;;;;;;;;;5071592;28;20195;-55
2022/04/13 10:20:14;;;;;;;8.53;4.20;;;;;;;;;;5071828;28;20238;-57
2022/04/13 10:22:57;;;;;;;9.47;4.20;;;;;;;;;;5071359;28;20546;-56
2022/04/13 10:25:27;;;;;;;6.87;3.57;;;;;;;;;;5071861;28;20265;-57
2022/04/13 10:27:53;;;;;;;5.87;3.83;;;;;;;;;;5072085;28;20201;-57
2022/04/13 10:30:26;;;;;;;10.80;3.93;;;;;;;;;;5072079;28;20280;-56
2022/04/13 10:32:57;;;;;;;9.93;3.30;;;;;;;;;;5071842;28;20209;-57
2022/04/13 10:35:22;;;;;;;4.70;3.43;;;;;;;;;;5071506;28;20269;-57
2022/04/13 10:37:49;;;;;;;6.83;3.10;;;;;;;;;;5071712;28;20591;-57
2022/04/13 10:40:15;;;;;;;12.87;3.63;;;;;;;;;;5071657;28;20264;-57
2022/04/13 10:42:43;;;;;;;7.67;3.53;;;;;;;;;;5071748;28;20633;-57
2022/04/13 10:45:10;;;;;;;8.97;3.43;;;;;;;;;;5071748;28;20233;-57
2022/04/13 10:47:41;;;;;;;10.50;3.40;;;;;;;;;;5071722;28;20290;-56
2022/04/13 10:50:08;;;;;;;5.70;3.00;;;;;;;;;;5071926;28;20198;-56
2022/04/13 10:52:34;;;;;;;6.03;2.77;;;;;;;;;;5071505;28;20272;-57
2022/04/13 10:55:03;;;;;;;7.53;3.50;;;;;;;;;;5071851;28;20213;-58
2022/04/13 10:57:35;;;;;;;7.33;2.90;;;;;;;;;;5071810;28;20198;-57
2022/04/13 11:00:03;;;;;;;10.00;3.40;;;;;;;;;;5071489;28;20299;-57
2022/04/13 11:02:30;;;;;;;5.90;3.43;;;;;;;;;;5071617;28;20272;-57
2022/04/13 11:04:58;;;;;;;7.73;3.70;;;;;;;;;;5071926;28;20206;-56
2022/04/13 11:07:24;;;;;;;6.00;3.47;;;;;;;;;;5071750;28;20211;-56
2022/04/13 11:09:51;;;;;;;6.97;3.77;;;;;;;;;;5071646;28;20199;-57
2022/04/13 11:12:18;;;;;;;5.70;3.43;;;;;;;;;;5071676;28;20200;-57
2022/04/13 11:14:49;;;;;;;12.07;3.40;;;;;;;;;;5071347;28;20663;-58
2022/04/13 11:17:25;;;;;;;7.90;4.03;;;;;;;;;;5071604;28;20207;-57
2022/04/13 11:19:51;;;;;;;12.83;3.57;;;;;;;;;;5071554;28;20669;-57
2022/04/13 11:22:19;;;;;;;6.63;4.00;;;;;;;;;;5071404;28;20278;-57
2022/04/13 11:24:54;;;;;;;8.67;3.93;;;;;;;;;;5071343;28;20237;-57
2022/04/13 11:27:22;;;;;;;7.00;3.70;;;;;;;;;;5071244;28;20621;-57
2022/04/13 11:29:58;;;;;;;7.70;3.63;;;;;;;;;;5071203;28;20717;-56
2022/04/13 11:32:25;;;;;;;7.40;3.97;;;;;;;;;;5071086;28;20651;-57
2022/04/13 11:35:00;;;;;;;9.23;3.63;;;;;;;;;;5071370;28;20196;-58
2022/04/13 11:37:41;;;;;;;6.17;3.30;;;;;;;;;;5071207;28;20481;-57
2022/04/13 11:40:09;;;;;;;10.10;3.63;;;;;;;;;;5071228;28;20304;-57
2022/04/13 11:43:03;;;;;;;11.43;4.40;;;;;;;;;;5071157;28;20682;-57
2022/04/13 11:45:29;;;;;;;6.83;3.83;;;;;;;;;;5072919;28;20206;-56
2022/04/13 11:47:58;;;;;;;7.80;3.70;;;;;;;;;;5074662;28;20282;-57
2022/04/13 11:50:25;;;;;;;8.67;3.93;;;;;;;;;;5074641;28;20657;-57
2022/04/13 11:52:53;;;;;;;8.20;3.47;;;;;;;;;;5074264;28;20199;-57
2022/04/13 11:55:20;;;;;;;9.10;4.10;;;;;;;;;;5073103;28;20207;-56
2022/04/13 11:58:02;;;;;;;11.67;3.70;;;;;;;;;;5074123;28;20205;-56
2022/04/13 12:00:38;;;;;;;7.13;3.23;;;;;;;;;;5073963;28;20599;-57
2022/04/13 12:03:05;;;;;;;7.50;3.03;;;;;;;;;;5074158;28;20286;-56
2022/04/13 12:05:31;;;;;;;5.07;3.20;;;;;;;;;;5073991;28;20215;-56
2022/04/13 12:08:00;;;;;;;6.13;3.20;;;;;;;;;;5074436;28;20195;-57
2022/04/13 12:10:26;;;;;;;7.37;3.20;;;;;;;;;;5074040;28;20226;-57
2022/04/13 12:12:52;;;;;;;8.80;3.23;;;;;;;;;;5073809;28;20202;-57
2022/04/13 12:15:18;;;;;;;7.67;3.07;;;;;;;;;;5073845;28;20261;-57
2022/04/13 12:17:44;;;;;;;7.33;3.43;;;;;;;;;;5074004;28;20196;-57
2022/04/13 12:20:26;;;;;;;9.20;3.00;;;;;;;;;;5073665;28;20639;-56
2022/04/13 12:22:53;;;;;;;11.23;3.70;;;;;;;;;;5073900;28;20204;-57
2022/04/13 12:25:20;;;;;;;6.30;3.37;;;;;;;;;;5073579;28;20231;-56
2022/04/13 12:28:01;;;;;;;7.47;3.27;;;;;;;;;;5073513;28;20657;-56
2022/04/13 12:30:27;;;;;;;6.97;3.50;;;;;;;;;;5073427;28;20197;-56
2022/04/13 12:32:53;;;;;;;11.47;3.50;;;;;;;;;;5073464;28;20699;-56
2022/04/13 12:35:19;;;;;;;11.23;3.53;;;;;;;;;;5073800;28;20203;-58
2022/04/13 12:37:49;;;;;;;5.20;3.50;;;;;;;;;;5073961;28;20210;-58
2022/04/13 12:40:18;;;;;;;7.23;3.47;;;;;;;;;;5073834;28;20231;-58
2022/04/13 12:42:45;;;;;;;9.33;3.60;;;;;;;;;;5073721;28;20218;-58
2022/04/13 12:45:12;;;;;;;8.57;3.30;;;;;;;;;;5073788;28;20289;-58
2022/04/13 12:47:44;;;;;;;11.07;3.37;;;;;;;;;;5073515;28;20245;-57
2022/04/13 12:50:10;;;;;;;10.87;3.90;;;;;;;;;;5073834;28;20187;-59
2022/04/13 12:52:36;;;;;;;9.30;3.93;;;;;;;;;;5073548;28;20234;-57
2022/04/13 12:55:05;;;;;;;11.77;4.37;;;;;;;;;;5073232;28;20240;-57
2022/04/13 12:57:31;;;;;;;9.97;4.23;;;;;;;;;;5072805;28;20206;-57
2022/04/13 12:59:58;;;;;;;9.93;4.20;;;;;;;;;;5073087;28;20223;-58
2022/04/13 13:02:24;;;;;;;8.03;4.00;;;;;;;;;;5073445;28;20249;-56
2022/04/13 13:04:50;;;;;;;6.27;4.17;;;;;;;;;;5073267;28;20615;-56
2022/04/13 13:07:16;;;;;;;8.90;4.00;;;;;;;;;;5073036;28;20286;-57
2022/04/13 13:09:51;;;;;;;9.30;4.20;;;;;;;;;;5073122;28;20238;-56
2022/04/13 13:12:19;;;;;;;9.77;4.30;;;;;;;;;;5072965;28;20210;-56
2022/04/13 13:14:51;;;;;;;7.73;4.20;;;;;;;;;;5072893;28;20293;-57
2022/04/13 13:17:19;;;;;;;9.20;4.37;;;;;;;;;;5072980;28;20679;-55
2022/04/13 13:19:46;;;;;;;9.33;3.93;;;;;;;;;;5072754;28;20231;-55
2022/04/13 13:22:15;;;;;;;6.23;3.60;;;;;;;;;;5072717;28;20669;-56
2022/04/13 13:24:58;;;;;;;8.30;3.90;;;;;;;;;;5072692;28;20246;-56
2022/04/13 13:27:25;;;;;;;11.60;3.70;;;;;;;;;;5072684;28;20570;-56
2022/04/13 13:29:54;;;;;;;6.13;3.70;;;;;;;;;;5072778;28;20270;-55
2022/04/13 13:32:22;;;;;;;8.13;3.97;;;;;;;;;;5072526;28;20277;-55
2022/04/13 13:34:49;;;;;;;9.57;3.93;;;;;;;;;;5072506;28;20303;-56
2022/04/13 13:37:26;;;;;;;7.27;4.10;;;;;;;;;;5072807;28;20203;-56
2022/04/13 13:39:53;;;;;;;9.10;3.87;;;;;;;;;;5072268;28;20230;-56
2022/04/13 13:42:19;;;;;;;8.87;4.10;;;;;;;;;;5072465;28;20567;-56
2022/04/13 13:44:45;;;;;;;8.83;3.97;;;;;;;;;;5072390;28;20207;-57
2022/04/13 13:47:11;;;;;;;8.83;4.40;;;;;;;;;;5072468;28;20198;-57
2022/04/13 13:49:38;;;;;;;8.20;4.00;;;;;;;;;;5072532;28;20212;-57
2022/04/13 13:52:04;;;;;;;8.77;4.40;;;;;;;;;;5072421;28;20214;-57
2022/04/13 13:54:33;;;;;;;9.63;4.10;;;;;;;;;;5072266;28;20202;-57
2022/04/13 13:57:01;;;;;;;12.07;4.37;;;;;;;;;;5072673;28;20205;-57
2022/04/13 13:59:27;;;;;;;8.10;4.40;;;;;;;;;;5072339;28;20609;-58
2022/04/13 14:01:53;;;;;;;8.23;3.63;;;;;;;;;;5072082;28;20868;-57
2022/04/13 14:04:19;;;;;;;8.93;4.23;;;;;;;;;;5072269;28;20241;-57
2022/04/13 14:06:46;;;;;;;9.30;4.00;;;;;;;;;;5072317;28;20617;-58
2022/04/13 14:09:12;;;;;;;9.10;4.20;;;;;;;;;;5071295;28;20194;-57
2022/04/13 14:11:39;;;;;;;7.70;4.23;;;;;;;;;;5072072;28;20193;-58
2022/04/13 14:14:05;;;;;;;14.97;4.17;;;;;;;;;;5072072;28;20228;-56
2022/04/13 14:16:32;;;;;;;10.27;4.13;;;;;;;;;;5072318;28;20280;-57
2022/04/13 14:18:58;;;;;;;10.53;3.93;;;;;;;;;;5072158;28;20227;-56
2022/04/13 14:21:24;;;;;;;7.50;3.80;;;;;;;;;;5072189;28;20202;-57
2022/04/13 14:23:51;;;;;;;8.07;3.93;;;;;;;;;;5071797;28;20223;-57
2022/04/13 14:26:17;;;;;;;10.50;4.10;;;;;;;;;;5072095;28;20271;-57
2022/04/13 14:28:45;;;;;;;8.20;3.90;;;;;;;;;;5072009;28;20197;-58
2022/04/13 14:31:11;;;;;;;8.37;3.73;;;;;;;;;;5071933;28;20635;-57
2022/04/13 14:33:37;;;;;;;7.77;3.83;;;;;;;;;;5071799;28;20301;-57
2022/04/13 14:36:03;;;;;;;10.07;3.73;;;;;;;;;;5071849;28;20205;-56
2022/04/13 14:38:29;;;;;;;7.77;3.80;;;;;;;;;;5071994;28;20279;-57
2022/04/13 14:40:56;;;;;;;7.97;3.53;;;;;;;;;;5071700;28;20642;-58
2022/04/13 14:43:22;;;;;;;9.97;3.50;;;;;;;;;;5071879;28;20203;-58